sensor_id;sensor_type;location;lat;lon;timestamp;P1;durP1;ratioP1;P2;durP2;ratioP2
24084;SDS011;12268;52.110;5.548;2023-07-09T00:01:16;35.30;;;25.90;;
24084;SDS011;12268;52.110;5.548;2023-07-09T00:03:43;35.13;;;25.88;;
24084;SDS011;12268;52.110;5.548;2023-07-09T00:06:16;31.85;;;25.88;;
24084;SDS011;12268;52.110;5.548;2023-07-09T00:08:43;38.63;;;25.58;;
24084;SDS011;12268;52.110;5.548;2023-07-09T00:11:11;35.63;;;26.55;;
24084;SDS011;12268;52.110;5.548;2023-07-09T00:13:37;33.25;;;25.65;;
24084;SDS011;12268;52.110;5.548;2023-07-09T00:16:07;28.85;;;25.35;;
24084;SDS011;12268;52.110;5.548;2023-07-09T00:18:41;29.48;;;24.10;;
24084;SDS011;12268;52.110;5.548;2023-07-09T00:21:07;32.83;;;24.52;;
24084;SDS011;12268;52.110;5.548;2023-07-09T00:23:33;36.47;;;24.05;;
24084;SDS011;12268;52.110;5.548;2023-07-09T00:25:59;35.28;;;25.73;;
24084;SDS011;12268;52.110;5.548;2023-07-09T00:28:28;34.45;;;26.02;;
24084;SDS011;12268;52.110;5.548;2023-07-09T00:30:53;32.00;;;26.17;;
24084;SDS011;12268;52.110;5.548;2023-07-09T00:33:19;34.72;;;25.77;;
24084;SDS011;12268;52.110;5.548;2023-07-09T00:35:45;31.00;;;24.45;;
24084;SDS011;12268;52.110;5.548;2023-07-09T00:38:18;30.42;;;25.70;;
24084;SDS011;12268;52.110;5.548;2023-07-09T00:43:24;31.00;;;25.42;;
24084;SDS011;12268;52.110;5.548;2023-07-09T00:48:38;35.30;;;23.80;;
24084;SDS011;12268;52.110;5.548;2023-07-09T00:51:04;29.25;;;22.80;;
24084;SDS011;12268;52.110;5.548;2023-07-09T00:53:36;25.90;;;22.52;;
24084;SDS011;12268;52.110;5.548;2023-07-09T00:56:05;29.80;;;23.13;;
24084;SDS011;12268;52.110;5.548;2023-07-09T00:58:39;29.85;;;23.85;;
24084;SDS011;12268;52.110;5.548;2023-07-09T01:01:09;29.73;;;22.40;;
24084;SDS011;12268;52.110;5.548;2023-07-09T01:03:39;32.55;;;23.20;;
24084;SDS011;12268;52.110;5.548;2023-07-09T01:06:07;29.50;;;22.40;;
24084;SDS011;12268;52.110;5.548;2023-07-09T01:08:35;25.80;;;20.35;;
24084;SDS011;12268;52.110;5.548;2023-07-09T01:11:13;22.77;;;20.38;;
24084;SDS011;12268;52.110;5.548;2023-07-09T01:13:49;27.02;;;21.27;;
24084;SDS011;12268;52.110;5.548;2023-07-09T01:16:18;25.35;;;21.50;;
24084;SDS011;12268;52.110;5.548;2023-07-09T01:18:45;25.05;;;21.60;;
24084;SDS011;12268;52.110;5.548;2023-07-09T01:21:11;24.95;;;21.25;;
24084;SDS011;12268;52.110;5.548;2023-07-09T01:23:40;24.98;;;21.17;;
24084;SDS011;12268;52.110;5.548;2023-07-09T01:26:11;27.00;;;23.20;;
24084;SDS011;12268;52.110;5.548;2023-07-09T01:28:39;30.05;;;22.10;;
24084;SDS011;12268;52.110;5.548;2023-07-09T01:31:09;30.25;;;22.10;;
24084;SDS011;12268;52.110;5.548;2023-07-09T01:33:35;30.20;;;21.17;;
24084;SDS011;12268;52.110;5.548;2023-07-09T01:36:01;29.27;;;22.15;;
24084;SDS011;12268;52.110;5.548;2023-07-09T01:38:27;31.65;;;21.55;;
24084;SDS011;12268;52.110;5.548;2023-07-09T01:40:56;27.20;;;20.80;;
24084;SDS011;12268;52.110;5.548;2023-07-09T01:43:22;25.83;;;21.45;;
24084;SDS011;12268;52.110;5.548;2023-07-09T01:45:49;33.13;;;23.38;;
24084;SDS011;12268;52.110;5.548;2023-07-09T01:48:16;30.23;;;23.80;;
24084;SDS011;12268;52.110;5.548;2023-07-09T01:50:43;31.80;;;23.95;;
24084;SDS011;12268;52.110;5.548;2023-07-09T01:53:12;31.13;;;22.73;;
24084;SDS011;12268;52.110;5.548;2023-07-09T01:55:39;32.63;;;24.02;;
24084;SDS011;12268;52.110;5.548;2023-07-09T01:58:05;29.85;;;22.83;;
24084;SDS011;12268;52.110;5.548;2023-07-09T02:00:31;30.33;;;24.27;;
24084;SDS011;12268;52.110;5.548;2023-07-09T02:02:57;29.63;;;23.20;;
24084;SDS011;12268;52.110;5.548;2023-07-09T02:05:25;25.73;;;22.65;;
24084;SDS011;12268;52.110;5.548;2023-07-09T02:07:51;27.80;;;21.45;;
24084;SDS011;12268;52.110;5.548;2023-07-09T02:10:17;27.40;;;22.25;;
24084;SDS011;12268;52.110;5.548;2023-07-09T02:12:43;27.67;;;22.55;;
24084;SDS011;12268;52.110;5.548;2023-07-09T02:15:09;30.88;;;22.77;;
24084;SDS011;12268;52.110;5.548;2023-07-09T02:17:35;26.88;;;21.77;;
24084;SDS011;12268;52.110;5.548;2023-07-09T02:20:01;28.08;;;22.10;;
24084;SDS011;12268;52.110;5.548;2023-07-09T02:22:29;30.42;;;23.27;;
24084;SDS011;12268;52.110;5.548;2023-07-09T02:24:54;32.22;;;24.27;;
24084;SDS011;12268;52.110;5.548;2023-07-09T02:27:20;35.08;;;25.33;;
24084;SDS011;12268;52.110;5.548;2023-07-09T02:29:46;29.27;;;23.55;;
24084;SDS011;12268;52.110;5.548;2023-07-09T02:32:13;32.15;;;25.38;;
24084;SDS011;12268;52.110;5.548;2023-07-09T02:34:46;39.97;;;23.63;;
24084;SDS011;12268;52.110;5.548;2023-07-09T02:37:17;29.33;;;23.58;;
24084;SDS011;12268;52.110;5.548;2023-07-09T02:39:45;32.92;;;24.88;;
24084;SDS011;12268;52.110;5.548;2023-07-09T02:42:11;31.50;;;24.77;;
24084;SDS011;12268;52.110;5.548;2023-07-09T02:44:40;30.75;;;23.75;;
24084;SDS011;12268;52.110;5.548;2023-07-09T02:47:07;34.22;;;23.58;;
24084;SDS011;12268;52.110;5.548;2023-07-09T02:49:34;31.92;;;24.15;;
24084;SDS011;12268;52.110;5.548;2023-07-09T02:51:59;36.65;;;25.20;;
24084;SDS011;12268;52.110;5.548;2023-07-09T02:54:25;32.67;;;25.20;;
24084;SDS011;12268;52.110;5.548;2023-07-09T02:56:50;30.48;;;24.13;;
24084;SDS011;12268;52.110;5.548;2023-07-09T02:59:16;32.70;;;24.20;;
24084;SDS011;12268;52.110;5.548;2023-07-09T03:01:42;33.13;;;23.48;;
24084;SDS011;12268;52.110;5.548;2023-07-09T03:04:08;30.20;;;24.40;;
24084;SDS011;12268;52.110;5.548;2023-07-09T03:06:35;34.10;;;24.92;;
24084;SDS011;12268;52.110;5.548;2023-07-09T03:09:01;34.65;;;24.30;;
24084;SDS011;12268;52.110;5.548;2023-07-09T03:11:29;34.20;;;24.25;;
24084;SDS011;12268;52.110;5.548;2023-07-09T03:13:55;35.05;;;25.42;;
24084;SDS011;12268;52.110;5.548;2023-07-09T03:16:22;30.45;;;24.42;;
24084;SDS011;12268;52.110;5.548;2023-07-09T03:18:47;30.15;;;23.80;;
24084;SDS011;12268;52.110;5.548;2023-07-09T03:21:13;28.55;;;22.80;;
24084;SDS011;12268;52.110;5.548;2023-07-09T03:23:39;29.50;;;22.38;;
24084;SDS011;12268;52.110;5.548;2023-07-09T03:26:04;28.95;;;23.08;;
24084;SDS011;12268;52.110;5.548;2023-07-09T03:28:30;26.65;;;22.88;;
24084;SDS011;12268;52.110;5.548;2023-07-09T03:30:57;27.80;;;22.40;;
24084;SDS011;12268;52.110;5.548;2023-07-09T03:33:23;27.05;;;23.80;;
24084;SDS011;12268;52.110;5.548;2023-07-09T03:35:49;31.65;;;24.45;;
24084;SDS011;12268;52.110;5.548;2023-07-09T03:38:15;38.17;;;26.45;;
24084;SDS011;12268;52.110;5.548;2023-07-09T03:40:41;32.17;;;26.27;;
24084;SDS011;12268;52.110;5.548;2023-07-09T03:43:07;36.35;;;28.30;;
24084;SDS011;12268;52.110;5.548;2023-07-09T03:45:35;35.17;;;27.73;;
24084;SDS011;12268;52.110;5.548;2023-07-09T03:48:02;32.33;;;26.48;;
24084;SDS011;12268;52.110;5.548;2023-07-09T03:50:27;35.40;;;25.98;;
24084;SDS011;12268;52.110;5.548;2023-07-09T03:52:53;31.65;;;24.98;;
24084;SDS011;12268;52.110;5.548;2023-07-09T03:55:19;32.63;;;23.65;;
24084;SDS011;12268;52.110;5.548;2023-07-09T03:57:44;33.08;;;25.80;;
24084;SDS011;12268;52.110;5.548;2023-07-09T04:00:10;33.47;;;27.08;;
24084;SDS011;12268;52.110;5.548;2023-07-09T04:02:37;33.83;;;25.23;;
24084;SDS011;12268;52.110;5.548;2023-07-09T04:05:03;32.65;;;27.27;;
24084;SDS011;12268;52.110;5.548;2023-07-09T04:07:29;28.95;;;23.42;;
24084;SDS011;12268;52.110;5.548;2023-07-09T04:09:55;28.95;;;24.38;;
24084;SDS011;12268;52.110;5.548;2023-07-09T04:12:20;34.47;;;27.60;;
24084;SDS011;12268;52.110;5.548;2023-07-09T04:14:46;32.92;;;26.58;;
24084;SDS011;12268;52.110;5.548;2023-07-09T04:17:11;32.00;;;25.95;;
24084;SDS011;12268;52.110;5.548;2023-07-09T04:19:37;33.90;;;24.90;;
24084;SDS011;12268;52.110;5.548;2023-07-09T04:22:03;33.50;;;26.85;;
24084;SDS011;12268;52.110;5.548;2023-07-09T04:24:29;32.78;;;27.35;;
24084;SDS011;12268;52.110;5.548;2023-07-09T04:26:55;33.67;;;27.90;;
24084;SDS011;12268;52.110;5.548;2023-07-09T04:29:24;38.83;;;28.25;;
24084;SDS011;12268;52.110;5.548;2023-07-09T04:31:50;35.13;;;29.17;;
24084;SDS011;12268;52.110;5.548;2023-07-09T04:34:15;32.88;;;27.75;;
24084;SDS011;12268;52.110;5.548;2023-07-09T04:36:41;35.28;;;27.90;;
24084;SDS011;12268;52.110;5.548;2023-07-09T04:39:06;36.40;;;28.05;;
24084;SDS011;12268;52.110;5.548;2023-07-09T04:41:32;31.15;;;26.58;;
24084;SDS011;12268;52.110;5.548;2023-07-09T04:43:58;32.50;;;27.15;;
24084;SDS011;12268;52.110;5.548;2023-07-09T04:46:24;30.23;;;26.98;;
24084;SDS011;12268;52.110;5.548;2023-07-09T04:48:49;34.58;;;28.15;;
24084;SDS011;12268;52.110;5.548;2023-07-09T04:51:15;36.92;;;29.23;;
24084;SDS011;12268;52.110;5.548;2023-07-09T04:53:40;47.78;;;34.72;;
24084;SDS011;12268;52.110;5.548;2023-07-09T04:56:07;41.97;;;31.15;;
24084;SDS011;12268;52.110;5.548;2023-07-09T04:58:33;42.10;;;33.10;;
24084;SDS011;12268;52.110;5.548;2023-07-09T05:00:59;37.45;;;31.20;;
24084;SDS011;12268;52.110;5.548;2023-07-09T05:03:25;38.33;;;31.70;;
24084;SDS011;12268;52.110;5.548;2023-07-09T05:05:51;47.15;;;32.22;;
24084;SDS011;12268;52.110;5.548;2023-07-09T05:08:17;41.15;;;31.88;;
24084;SDS011;12268;52.110;5.548;2023-07-09T05:10:43;41.95;;;31.90;;
24084;SDS011;12268;52.110;5.548;2023-07-09T05:13:10;33.25;;;29.70;;
24084;SDS011;12268;52.110;5.548;2023-07-09T05:15:39;45.63;;;33.17;;
24084;SDS011;12268;52.110;5.548;2023-07-09T05:18:06;45.90;;;34.45;;
24084;SDS011;12268;52.110;5.548;2023-07-09T05:20:33;47.58;;;36.42;;
24084;SDS011;12268;52.110;5.548;2023-07-09T05:22:58;45.33;;;34.97;;
24084;SDS011;12268;52.110;5.548;2023-07-09T05:25:24;44.13;;;35.42;;
24084;SDS011;12268;52.110;5.548;2023-07-09T05:27:49;40.15;;;33.53;;
24084;SDS011;12268;52.110;5.548;2023-07-09T05:30:16;42.45;;;33.92;;
24084;SDS011;12268;52.110;5.548;2023-07-09T05:32:42;40.00;;;31.55;;
24084;SDS011;12268;52.110;5.548;2023-07-09T05:35:08;36.83;;;30.27;;
24084;SDS011;12268;52.110;5.548;2023-07-09T05:37:34;39.08;;;31.52;;
24084;SDS011;12268;52.110;5.548;2023-07-09T05:40:00;44.28;;;31.85;;
24084;SDS011;12268;52.110;5.548;2023-07-09T05:42:26;40.97;;;31.90;;
24084;SDS011;12268;52.110;5.548;2023-07-09T05:44:52;40.17;;;32.90;;
24084;SDS011;12268;52.110;5.548;2023-07-09T05:47:17;41.83;;;32.55;;
24084;SDS011;12268;52.110;5.548;2023-07-09T05:49:43;43.15;;;32.00;;
24084;SDS011;12268;52.110;5.548;2023-07-09T05:52:10;42.97;;;31.67;;
24084;SDS011;12268;52.110;5.548;2023-07-09T05:54:36;43.03;;;32.40;;
24084;SDS011;12268;52.110;5.548;2023-07-09T05:57:01;40.53;;;33.92;;
24084;SDS011;12268;52.110;5.548;2023-07-09T05:59:27;47.55;;;34.22;;
24084;SDS011;12268;52.110;5.548;2023-07-09T06:01:52;44.03;;;34.58;;
24084;SDS011;12268;52.110;5.548;2023-07-09T06:04:18;41.80;;;33.15;;
24084;SDS011;12268;52.110;5.548;2023-07-09T06:06:43;41.75;;;32.75;;
24084;SDS011;12268;52.110;5.548;2023-07-09T06:09:10;38.60;;;32.03;;
24084;SDS011;12268;52.110;5.548;2023-07-09T06:11:35;45.47;;;33.22;;
24084;SDS011;12268;52.110;5.548;2023-07-09T06:14:01;41.85;;;32.55;;
24084;SDS011;12268;52.110;5.548;2023-07-09T06:16:27;48.63;;;33.40;;
24084;SDS011;12268;52.110;5.548;2023-07-09T06:18:53;40.22;;;33.90;;
24084;SDS011;12268;52.110;5.548;2023-07-09T06:21:18;40.40;;;32.30;;
24084;SDS011;12268;52.110;5.548;2023-07-09T06:23:47;45.80;;;32.88;;
24084;SDS011;12268;52.110;5.548;2023-07-09T06:26:12;40.92;;;32.28;;
24084;SDS011;12268;52.110;5.548;2023-07-09T06:28:38;46.20;;;31.77;;
24084;SDS011;12268;52.110;5.548;2023-07-09T06:31:04;50.65;;;33.20;;
24084;SDS011;12268;52.110;5.548;2023-07-09T06:33:29;37.83;;;31.30;;
24084;SDS011;12268;52.110;5.548;2023-07-09T06:35:59;44.72;;;32.50;;
24084;SDS011;12268;52.110;5.548;2023-07-09T06:38:26;40.47;;;30.58;;
24084;SDS011;12268;52.110;5.548;2023-07-09T06:40:52;41.13;;;30.83;;
24084;SDS011;12268;52.110;5.548;2023-07-09T06:43:18;41.13;;;30.25;;
24084;SDS011;12268;52.110;5.548;2023-07-09T06:45:47;43.08;;;29.50;;
24084;SDS011;12268;52.110;5.548;2023-07-09T06:48:24;43.63;;;31.20;;
24084;SDS011;12268;52.110;5.548;2023-07-09T06:50:51;43.17;;;30.00;;
24084;SDS011;12268;52.110;5.548;2023-07-09T06:53:18;41.55;;;29.95;;
24084;SDS011;12268;52.110;5.548;2023-07-09T06:55:45;39.75;;;31.13;;
24084;SDS011;12268;52.110;5.548;2023-07-09T06:58:11;40.40;;;28.88;;
24084;SDS011;12268;52.110;5.548;2023-07-09T07:00:36;39.58;;;30.73;;
24084;SDS011;12268;52.110;5.548;2023-07-09T07:03:03;38.13;;;30.42;;
24084;SDS011;12268;52.110;5.548;2023-07-09T07:05:30;38.22;;;30.08;;
24084;SDS011;12268;52.110;5.548;2023-07-09T07:07:56;37.78;;;28.35;;
24084;SDS011;12268;52.110;5.548;2023-07-09T07:10:22;39.17;;;28.27;;
24084;SDS011;12268;52.110;5.548;2023-07-09T07:12:48;38.65;;;27.95;;
24084;SDS011;12268;52.110;5.548;2023-07-09T07:15:15;37.13;;;28.73;;
24084;SDS011;12268;52.110;5.548;2023-07-09T07:17:42;31.73;;;26.88;;
24084;SDS011;12268;52.110;5.548;2023-07-09T07:20:08;39.85;;;25.45;;
24084;SDS011;12268;52.110;5.548;2023-07-09T07:22:36;34.28;;;24.55;;
24084;SDS011;12268;52.110;5.548;2023-07-09T07:25:02;34.28;;;23.20;;
24084;SDS011;12268;52.110;5.548;2023-07-09T07:27:28;30.70;;;23.05;;
24084;SDS011;12268;52.110;5.548;2023-07-09T07:29:54;27.48;;;20.30;;
24084;SDS011;12268;52.110;5.548;2023-07-09T07:32:19;29.70;;;21.02;;
24084;SDS011;12268;52.110;5.548;2023-07-09T07:34:46;33.38;;;21.20;;
24084;SDS011;12268;52.110;5.548;2023-07-09T07:37:12;29.02;;;21.48;;
24084;SDS011;12268;52.110;5.548;2023-07-09T07:39:38;27.90;;;22.85;;
24084;SDS011;12268;52.110;5.548;2023-07-09T07:42:03;30.35;;;21.20;;
24084;SDS011;12268;52.110;5.548;2023-07-09T07:44:29;30.63;;;21.80;;
24084;SDS011;12268;52.110;5.548;2023-07-09T07:46:55;33.30;;;22.13;;
24084;SDS011;12268;52.110;5.548;2023-07-09T07:49:20;31.63;;;20.52;;
24084;SDS011;12268;52.110;5.548;2023-07-09T07:51:46;25.85;;;19.70;;
24084;SDS011;12268;52.110;5.548;2023-07-09T07:54:12;26.45;;;18.98;;
24084;SDS011;12268;52.110;5.548;2023-07-09T07:56:37;26.13;;;19.05;;
24084;SDS011;12268;52.110;5.548;2023-07-09T07:59:03;22.02;;;17.58;;
24084;SDS011;12268;52.110;5.548;2023-07-09T08:01:28;22.10;;;15.85;;
24084;SDS011;12268;52.110;5.548;2023-07-09T08:03:54;19.77;;;14.63;;
24084;SDS011;12268;52.110;5.548;2023-07-09T08:06:20;21.67;;;15.07;;
24084;SDS011;12268;52.110;5.548;2023-07-09T08:08:46;19.65;;;14.15;;
24084;SDS011;12268;52.110;5.548;2023-07-09T08:11:12;19.90;;;14.05;;
24084;SDS011;12268;52.110;5.548;2023-07-09T08:13:38;23.85;;;13.85;;
24084;SDS011;12268;52.110;5.548;2023-07-09T08:16:04;15.65;;;12.45;;
24084;SDS011;12268;52.110;5.548;2023-07-09T08:18:30;19.50;;;11.68;;
24084;SDS011;12268;52.110;5.548;2023-07-09T08:20:56;16.90;;;11.82;;
24084;SDS011;12268;52.110;5.548;2023-07-09T08:23:22;16.20;;;11.18;;
24084;SDS011;12268;52.110;5.548;2023-07-09T08:25:54;17.90;;;12.13;;
24084;SDS011;12268;52.110;5.548;2023-07-09T08:28:21;17.70;;;11.00;;
24084;SDS011;12268;52.110;5.548;2023-07-09T08:30:47;17.98;;;10.57;;
24084;SDS011;12268;52.110;5.548;2023-07-09T08:33:12;13.07;;;10.27;;
24084;SDS011;12268;52.110;5.548;2023-07-09T08:35:38;16.38;;;10.68;;
24084;SDS011;12268;52.110;5.548;2023-07-09T08:38:07;17.73;;;11.30;;
24084;SDS011;12268;52.110;5.548;2023-07-09T08:40:33;17.15;;;10.80;;
24084;SDS011;12268;52.110;5.548;2023-07-09T08:43:06;13.27;;;10.27;;
24084;SDS011;12268;52.110;5.548;2023-07-09T08:48:45;14.05;;;9.57;;
24084;SDS011;12268;52.110;5.548;2023-07-09T08:51:20;16.85;;;10.77;;
24084;SDS011;12268;52.110;5.548;2023-07-09T08:53:59;12.25;;;9.20;;
24084;SDS011;12268;52.110;5.548;2023-07-09T08:56:26;14.02;;;10.00;;
24084;SDS011;12268;52.110;5.548;2023-07-09T08:58:54;13.43;;;10.05;;
24084;SDS011;12268;52.110;5.548;2023-07-09T09:01:41;14.13;;;10.10;;
24084;SDS011;12268;52.110;5.548;2023-07-09T09:04:29;17.58;;;10.30;;
24084;SDS011;12268;52.110;5.548;2023-07-09T09:09:32;20.35;;;10.10;;
24084;SDS011;12268;52.110;5.548;2023-07-09T09:14:41;13.05;;;8.02;;
24084;SDS011;12268;52.110;5.548;2023-07-09T09:17:13;16.05;;;9.27;;
24084;SDS011;12268;52.110;5.548;2023-07-09T09:19:48;13.18;;;9.65;;
24084;SDS011;12268;52.110;5.548;2023-07-09T09:22:28;12.57;;;8.82;;
24084;SDS011;12268;52.110;5.548;2023-07-09T09:27:41;11.68;;;10.02;;
24084;SDS011;12268;52.110;5.548;2023-07-09T09:30:14;19.73;;;10.55;;
24084;SDS011;12268;52.110;5.548;2023-07-09T09:32:48;13.15;;;10.45;;
24084;SDS011;12268;52.110;5.548;2023-07-09T09:35:25;17.58;;;9.77;;
24084;SDS011;12268;52.110;5.548;2023-07-09T09:38:01;17.67;;;11.45;;
24084;SDS011;12268;52.110;5.548;2023-07-09T09:40:35;14.13;;;10.20;;
24084;SDS011;12268;52.110;5.548;2023-07-09T09:43:01;15.88;;;10.50;;
24084;SDS011;12268;52.110;5.548;2023-07-09T09:45:28;15.85;;;10.43;;
24084;SDS011;12268;52.110;5.548;2023-07-09T09:48:00;12.45;;;10.60;;
24084;SDS011;12268;52.110;5.548;2023-07-09T09:50:27;12.65;;;10.02;;
24084;SDS011;12268;52.110;5.548;2023-07-09T09:52:57;12.30;;;10.70;;
24084;SDS011;12268;52.110;5.548;2023-07-09T09:55:28;17.83;;;11.02;;
24084;SDS011;12268;52.110;5.548;2023-07-09T09:57:55;15.70;;;11.23;;
24084;SDS011;12268;52.110;5.548;2023-07-09T10:00:22;12.77;;;10.30;;
24084;SDS011;12268;52.110;5.548;2023-07-09T10:02:50;17.13;;;10.05;;
24084;SDS011;12268;52.110;5.548;2023-07-09T10:05:21;14.23;;;10.23;;
24084;SDS011;12268;52.110;5.548;2023-07-09T10:08:14;11.60;;;10.18;;
24084;SDS011;12268;52.110;5.548;2023-07-09T10:10:50;16.17;;;10.60;;
24084;SDS011;12268;52.110;5.548;2023-07-09T10:13:24;13.30;;;9.95;;
24084;SDS011;12268;52.110;5.548;2023-07-09T10:21:45;16.42;;;11.07;;
24084;SDS011;12268;52.110;5.548;2023-07-09T10:27:13;12.05;;;9.95;;
24084;SDS011;12268;52.110;5.548;2023-07-09T10:29:57;12.25;;;8.73;;
24084;SDS011;12268;52.110;5.548;2023-07-09T10:32:32;11.38;;;8.20;;
24084;SDS011;12268;52.110;5.548;2023-07-09T10:36:01;15.45;;;8.90;;
24084;SDS011;12268;52.110;5.548;2023-07-09T10:38:12;9.50;;;8.35;;
24084;SDS011;12268;52.110;5.548;2023-07-09T10:40:49;14.52;;;9.95;;
24084;SDS011;12268;52.110;5.548;2023-07-09T10:43:20;14.55;;;10.10;;
24084;SDS011;12268;52.110;5.548;2023-07-09T10:45:54;12.07;;;10.02;;
24084;SDS011;12268;52.110;5.548;2023-07-09T10:48:33;11.10;;;7.95;;
24084;SDS011;12268;52.110;5.548;2023-07-09T10:51:16;11.32;;;8.88;;
24084;SDS011;12268;52.110;5.548;2023-07-09T10:53:58;10.70;;;9.43;;
24084;SDS011;12268;52.110;5.548;2023-07-09T10:56:37;11.10;;;8.63;;
24084;SDS011;12268;52.110;5.548;2023-07-09T10:59:16;12.57;;;8.48;;
24084;SDS011;12268;52.110;5.548;2023-07-09T11:01:55;10.82;;;8.38;;
24084;SDS011;12268;52.110;5.548;2023-07-09T11:04:33;10.98;;;8.60;;
24084;SDS011;12268;52.110;5.548;2023-07-09T11:07:06;14.18;;;8.35;;
24084;SDS011;12268;52.110;5.548;2023-07-09T11:09:44;9.43;;;8.25;;
24084;SDS011;12268;52.110;5.548;2023-07-09T11:14:47;11.63;;;9.70;;
24084;SDS011;12268;52.110;5.548;2023-07-09T11:17:19;10.85;;;9.02;;
24084;SDS011;12268;52.110;5.548;2023-07-09T11:19:46;13.50;;;9.05;;
24084;SDS011;12268;52.110;5.548;2023-07-09T11:22:22;14.93;;;8.50;;
24084;SDS011;12268;52.110;5.548;2023-07-09T11:27:21;12.63;;;8.98;;
24084;SDS011;12268;52.110;5.548;2023-07-09T11:29:55;10.02;;;7.88;;
24084;SDS011;12268;52.110;5.548;2023-07-09T11:32:26;11.55;;;8.35;;
24084;SDS011;12268;52.110;5.548;2023-07-09T11:34:52;13.23;;;8.10;;
24084;SDS011;12268;52.110;5.548;2023-07-09T11:37:19;11.05;;;8.65;;
24084;SDS011;12268;52.110;5.548;2023-07-09T11:39:49;10.18;;;7.95;;
24084;SDS011;12268;52.110;5.548;2023-07-09T11:45:16;14.98;;;8.02;;
24084;SDS011;12268;52.110;5.548;2023-07-09T11:50:41;13.93;;;8.18;;
24084;SDS011;12268;52.110;5.548;2023-07-09T11:55:53;11.45;;;7.63;;
24084;SDS011;12268;52.110;5.548;2023-07-09T11:58:19;15.25;;;7.82;;
24084;SDS011;12268;52.110;5.548;2023-07-09T12:00:45;8.30;;;7.18;;
24084;SDS011;12268;52.110;5.548;2023-07-09T12:03:37;17.65;;;8.50;;
24084;SDS011;12268;52.110;5.548;2023-07-09T12:06:15;10.88;;;7.93;;
24084;SDS011;12268;52.110;5.548;2023-07-09T12:08:51;13.25;;;8.68;;
24084;SDS011;12268;52.110;5.548;2023-07-09T12:11:25;24.20;;;14.38;;
24084;SDS011;12268;52.110;5.548;2023-07-09T12:14:08;26.35;;;18.70;;
24084;SDS011;12268;52.110;5.548;2023-07-09T12:16:39;26.20;;;17.30;;
24084;SDS011;12268;52.110;5.548;2023-07-09T12:19:17;22.85;;;15.85;;
24084;SDS011;12268;52.110;5.548;2023-07-09T12:21:55;20.58;;;16.23;;
24084;SDS011;12268;52.110;5.548;2023-07-09T12:24:24;18.45;;;15.43;;
24084;SDS011;12268;52.110;5.548;2023-07-09T12:26:55;18.98;;;15.95;;
24084;SDS011;12268;52.110;5.548;2023-07-09T12:29:30;20.38;;;16.77;;
24084;SDS011;12268;52.110;5.548;2023-07-09T12:32:02;24.17;;;15.27;;
24084;SDS011;12268;52.110;5.548;2023-07-09T12:34:35;20.08;;;16.30;;
24084;SDS011;12268;52.110;5.548;2023-07-09T12:37:00;21.48;;;16.05;;
24084;SDS011;12268;52.110;5.548;2023-07-09T12:39:26;18.17;;;15.60;;
24084;SDS011;12268;52.110;5.548;2023-07-09T12:41:59;23.88;;;15.65;;
24084;SDS011;12268;52.110;5.548;2023-07-09T12:44:26;17.42;;;15.43;;
24084;SDS011;12268;52.110;5.548;2023-07-09T12:46:56;19.48;;;13.90;;
24084;SDS011;12268;52.110;5.548;2023-07-09T12:51:49;17.73;;;15.50;;
24084;SDS011;12268;52.110;5.548;2023-07-09T12:54:17;21.60;;;14.48;;
24084;SDS011;12268;52.110;5.548;2023-07-09T12:56:46;17.70;;;13.98;;
24084;SDS011;12268;52.110;5.548;2023-07-09T12:59:18;14.93;;;13.05;;
24084;SDS011;12268;52.110;5.548;2023-07-09T13:04:33;17.45;;;13.45;;
24084;SDS011;12268;52.110;5.548;2023-07-09T13:07:03;16.67;;;11.90;;
24084;SDS011;12268;52.110;5.548;2023-07-09T13:09:30;16.98;;;12.10;;
24084;SDS011;12268;52.110;5.548;2023-07-09T13:11:56;15.50;;;11.80;;
24084;SDS011;12268;52.110;5.548;2023-07-09T13:14:27;14.23;;;11.73;;
24084;SDS011;12268;52.110;5.548;2023-07-09T13:17:04;16.88;;;12.13;;
24084;SDS011;12268;52.110;5.548;2023-07-09T13:19:31;17.25;;;12.00;;
24084;SDS011;12268;52.110;5.548;2023-07-09T13:21:56;15.68;;;11.80;;
24084;SDS011;12268;52.110;5.548;2023-07-09T13:24:23;14.63;;;10.65;;
24084;SDS011;12268;52.110;5.548;2023-07-09T13:26:51;13.45;;;11.23;;
24084;SDS011;12268;52.110;5.548;2023-07-09T13:29:17;13.90;;;10.85;;
24084;SDS011;12268;52.110;5.548;2023-07-09T13:31:44;13.82;;;10.43;;
24084;SDS011;12268;52.110;5.548;2023-07-09T13:34:21;15.13;;;10.43;;
24084;SDS011;12268;52.110;5.548;2023-07-09T13:36:48;12.98;;;9.85;;
24084;SDS011;12268;52.110;5.548;2023-07-09T13:39:15;16.63;;;10.05;;
24084;SDS011;12268;52.110;5.548;2023-07-09T13:41:42;16.52;;;10.13;;
24084;SDS011;12268;52.110;5.548;2023-07-09T13:44:13;11.30;;;8.88;;
24084;SDS011;12268;52.110;5.548;2023-07-09T13:46:41;12.27;;;8.00;;
24084;SDS011;12268;52.110;5.548;2023-07-09T13:49:10;11.68;;;8.43;;
24084;SDS011;12268;52.110;5.548;2023-07-09T13:51:43;15.55;;;8.52;;
24084;SDS011;12268;52.110;5.548;2023-07-09T13:54:17;12.63;;;8.40;;
24084;SDS011;12268;52.110;5.548;2023-07-09T13:56:46;13.00;;;8.70;;
24084;SDS011;12268;52.110;5.548;2023-07-09T13:59:19;12.50;;;8.68;;
24084;SDS011;12268;52.110;5.548;2023-07-09T14:01:47;11.15;;;8.75;;
24084;SDS011;12268;52.110;5.548;2023-07-09T14:04:17;12.60;;;8.37;;
24084;SDS011;12268;52.110;5.548;2023-07-09T14:06:44;11.75;;;8.20;;
24084;SDS011;12268;52.110;5.548;2023-07-09T14:09:11;13.43;;;8.05;;
24084;SDS011;12268;52.110;5.548;2023-07-09T14:11:50;11.60;;;8.32;;
24084;SDS011;12268;52.110;5.548;2023-07-09T14:16:55;12.02;;;8.15;;
24084;SDS011;12268;52.110;5.548;2023-07-09T14:19:22;14.32;;;7.97;;
24084;SDS011;12268;52.110;5.548;2023-07-09T14:21:49;13.48;;;7.90;;
24084;SDS011;12268;52.110;5.548;2023-07-09T14:24:25;10.20;;;6.60;;
24084;SDS011;12268;52.110;5.548;2023-07-09T14:26:54;10.70;;;5.30;;
24084;SDS011;12268;52.110;5.548;2023-07-09T14:29:21;9.35;;;4.85;;
24084;SDS011;12268;52.110;5.548;2023-07-09T14:31:48;9.93;;;4.47;;
24084;SDS011;12268;52.110;5.548;2023-07-09T14:34:22;15.20;;;5.00;;
24084;SDS011;12268;52.110;5.548;2023-07-09T14:36:57;13.07;;;4.93;;
24084;SDS011;12268;52.110;5.548;2023-07-09T14:39:25;9.23;;;4.72;;
24084;SDS011;12268;52.110;5.548;2023-07-09T14:41:52;16.75;;;5.45;;
24084;SDS011;12268;52.110;5.548;2023-07-09T14:44:25;12.05;;;5.30;;
24084;SDS011;12268;52.110;5.548;2023-07-09T14:46:52;10.98;;;5.10;;
24084;SDS011;12268;52.110;5.548;2023-07-09T14:49:19;12.82;;;5.35;;
24084;SDS011;12268;52.110;5.548;2023-07-09T14:51:46;10.68;;;5.47;;
24084;SDS011;12268;52.110;5.548;2023-07-09T14:54:24;15.02;;;5.95;;
24084;SDS011;12268;52.110;5.548;2023-07-09T14:56:54;16.95;;;5.75;;
24084;SDS011;12268;52.110;5.548;2023-07-09T14:59:22;17.55;;;6.10;;
24084;SDS011;12268;52.110;5.548;2023-07-09T15:01:48;12.70;;;6.00;;
24084;SDS011;12268;52.110;5.548;2023-07-09T15:06:46;27.58;;;7.97;;
24084;SDS011;12268;52.110;5.548;2023-07-09T15:09:16;19.85;;;8.30;;
24084;SDS011;12268;52.110;5.548;2023-07-09T15:11:48;15.32;;;7.47;;
24084;SDS011;12268;52.110;5.548;2023-07-09T15:14:15;22.58;;;8.20;;
24084;SDS011;12268;52.110;5.548;2023-07-09T15:16:41;14.57;;;7.80;;
24084;SDS011;12268;52.110;5.548;2023-07-09T15:19:13;11.40;;;7.07;;
24084;SDS011;12268;52.110;5.548;2023-07-09T15:21:40;15.82;;;7.05;;
24084;SDS011;12268;52.110;5.548;2023-07-09T15:24:10;11.90;;;7.20;;